sensor_id;sensor_type;location;lat;lon;timestamp;P1;durP1;ratioP1;P2;durP2;ratioP2
48881;SDS011;57063;51.406;-2.402;2024-01-11T00:01:59;5.70;;;1.95;;
48881;SDS011;57063;51.406;-2.402;2024-01-11T00:04:25;7.88;;;2.58;;
48881;SDS011;57063;51.406;-2.402;2024-01-11T00:06:51;6.70;;;2.35;;
48881;SDS011;57063;51.406;-2.402;2024-01-11T00:09:16;12.80;;;3.65;;
48881;SDS011;57063;51.406;-2.402;2024-01-11T00:11:41;8.18;;;3.88;;
48881;SDS011;57063;51.406;-2.402;2024-01-11T00:14:07;7.82;;;2.15;;
48881;SDS011;57063;51.406;-2.402;2024-01-11T00:16:32;7.85;;;2.35;;
48881;SDS011;57063;51.406;-2.402;2024-01-11T00:18:58;7.05;;;2.20;;
48881;SDS011;57063;51.406;-2.402;2024-01-11T00:21:23;13.77;;;2.50;;
48881;SDS011;57063;51.406;-2.402;2024-01-11T00:23:49;3.30;;;1.95;;
48881;SDS011;57063;51.406;-2.402;2024-01-11T00:26:14;4.53;;;2.28;;
48881;SDS011;57063;51.406;-2.402;2024-01-11T00:28:40;6.78;;;2.17;;
48881;SDS011;57063;51.406;-2.402;2024-01-11T00:31:05;8.38;;;2.63;;
48881;SDS011;57063;51.406;-2.402;2024-01-11T00:33:31;7.68;;;2.30;;
48881;SDS011;57063;51.406;-2.402;2024-01-11T00:35:56;4.60;;;2.10;;
48881;SDS011;57063;51.406;-2.402;2024-01-11T00:38:23;10.05;;;2.15;;
48881;SDS011;57063;51.406;-2.402;2024-01-11T00:40:48;5.55;;;2.08;;
48881;SDS011;57063;51.406;-2.402;2024-01-11T00:43:14;5.85;;;2.42;;
48881;SDS011;57063;51.406;-2.402;2024-01-11T00:45:39;7.63;;;2.60;;
48881;SDS011;57063;51.406;-2.402;2024-01-11T00:48:05;7.95;;;1.90;;
48881;SDS011;57063;51.406;-2.402;2024-01-11T00:50:30;6.82;;;1.88;;
48881;SDS011;57063;51.406;-2.402;2024-01-11T00:52:56;9.15;;;2.05;;
48881;SDS011;57063;51.406;-2.402;2024-01-11T00:55:22;16.00;;;4.82;;
48881;SDS011;57063;51.406;-2.402;2024-01-11T00:57:47;7.82;;;1.98;;
48881;SDS011;57063;51.406;-2.402;2024-01-11T01:00:13;9.73;;;2.20;;
48881;SDS011;57063;51.406;-2.402;2024-01-11T01:02:41;8.50;;;2.05;;
48881;SDS011;57063;51.406;-2.402;2024-01-11T01:05:07;8.55;;;2.20;;
48881;SDS011;57063;51.406;-2.402;2024-01-11T01:07:33;12.45;;;2.35;;
48881;SDS011;57063;51.406;-2.402;2024-01-11T01:09:58;6.43;;;2.10;;
48881;SDS011;57063;51.406;-2.402;2024-01-11T01:12:24;5.40;;;1.70;;
48881;SDS011;57063;51.406;-2.402;2024-01-11T01:14:53;11.32;;;3.00;;
48881;SDS011;57063;51.406;-2.402;2024-01-11T01:17:19;8.77;;;2.17;;
48881;SDS011;57063;51.406;-2.402;2024-01-11T01:19:44;4.53;;;2.13;;
48881;SDS011;57063;51.406;-2.402;2024-01-11T01:22:10;11.52;;;1.85;;
48881;SDS011;57063;51.406;-2.402;2024-01-11T01:24:35;6.72;;;1.50;;
48881;SDS011;57063;51.406;-2.402;2024-01-11T01:27:01;11.20;;;2.38;;
48881;SDS011;57063;51.406;-2.402;2024-01-11T01:29:26;10.10;;;2.10;;
48881;SDS011;57063;51.406;-2.402;2024-01-11T01:31:52;8.18;;;2.20;;
48881;SDS011;57063;51.406;-2.402;2024-01-11T01:34:18;5.68;;;2.17;;
48881;SDS011;57063;51.406;-2.402;2024-01-11T01:36:44;8.63;;;2.13;;
48881;SDS011;57063;51.406;-2.402;2024-01-11T01:39:09;8.10;;;1.80;;
48881;SDS011;57063;51.406;-2.402;2024-01-11T01:41:34;13.70;;;2.05;;
48881;SDS011;57063;51.406;-2.402;2024-01-11T01:44:00;13.68;;;2.25;;
48881;SDS011;57063;51.406;-2.402;2024-01-11T01:46:25;8.45;;;1.80;;
48881;SDS011;57063;51.406;-2.402;2024-01-11T01:48:52;8.25;;;1.55;;
48881;SDS011;57063;51.406;-2.402;2024-01-11T01:51:19;7.57;;;1.90;;
48881;SDS011;57063;51.406;-2.402;2024-01-11T01:53:45;9.95;;;2.20;;
48881;SDS011;57063;51.406;-2.402;2024-01-11T01:56:10;15.35;;;2.20;;
48881;SDS011;57063;51.406;-2.402;2024-01-11T01:58:37;10.07;;;2.50;;
48881;SDS011;57063;51.406;-2.402;2024-01-11T02:01:03;2.40;;;1.92;;
48881;SDS011;57063;51.406;-2.402;2024-01-11T02:03:28;10.15;;;2.05;;
48881;SDS011;57063;51.406;-2.402;2024-01-11T02:05:55;7.88;;;1.90;;
48881;SDS011;57063;51.406;-2.402;2024-01-11T02:08:21;12.13;;;2.72;;
48881;SDS011;57063;51.406;-2.402;2024-01-11T02:10:50;8.00;;;2.10;;
48881;SDS011;57063;51.406;-2.402;2024-01-11T02:13:16;7.88;;;1.90;;
48881;SDS011;57063;51.406;-2.402;2024-01-11T02:15:42;4.90;;;1.85;;
48881;SDS011;57063;51.406;-2.402;2024-01-11T02:18:07;9.85;;;2.83;;
48881;SDS011;57063;51.406;-2.402;2024-01-11T02:20:32;11.48;;;2.85;;
48881;SDS011;57063;51.406;-2.402;2024-01-11T02:22:58;7.18;;;2.45;;
48881;SDS011;57063;51.406;-2.402;2024-01-11T02:25:28;5.25;;;1.45;;
48881;SDS011;57063;51.406;-2.402;2024-01-11T02:27:54;5.13;;;2.35;;
48881;SDS011;57063;51.406;-2.402;2024-01-11T02:30:19;9.02;;;2.58;;
48881;SDS011;57063;51.406;-2.402;2024-01-11T02:32:48;13.30;;;2.60;;
48881;SDS011;57063;51.406;-2.402;2024-01-11T02:35:17;14.20;;;2.50;;
48881;SDS011;57063;51.406;-2.402;2024-01-11T02:37:43;8.20;;;2.40;;
48881;SDS011;57063;51.406;-2.402;2024-01-11T02:40:10;7.65;;;2.17;;
48881;SDS011;57063;51.406;-2.402;2024-01-11T02:42:38;8.30;;;2.58;;
48881;SDS011;57063;51.406;-2.402;2024-01-11T02:45:03;9.90;;;2.63;;
48881;SDS011;57063;51.406;-2.402;2024-01-11T02:47:29;11.82;;;2.38;;
48881;SDS011;57063;51.406;-2.402;2024-01-11T02:49:55;11.82;;;2.53;;
48881;SDS011;57063;51.406;-2.402;2024-01-11T02:52:21;4.78;;;2.25;;
48881;SDS011;57063;51.406;-2.402;2024-01-11T02:54:47;11.43;;;2.80;;
48881;SDS011;57063;51.406;-2.402;2024-01-11T02:57:13;11.77;;;2.28;;
48881;SDS011;57063;51.406;-2.402;2024-01-11T02:59:39;10.48;;;3.30;;
48881;SDS011;57063;51.406;-2.402;2024-01-11T03:02:05;14.77;;;3.60;;
48881;SDS011;57063;51.406;-2.402;2024-01-11T03:04:30;12.40;;;3.13;;
48881;SDS011;57063;51.406;-2.402;2024-01-11T03:06:56;8.80;;;2.85;;
48881;SDS011;57063;51.406;-2.402;2024-01-11T03:09:21;8.48;;;2.45;;
48881;SDS011;57063;51.406;-2.402;2024-01-11T03:11:46;7.65;;;2.83;;
48881;SDS011;57063;51.406;-2.402;2024-01-11T03:14:12;10.57;;;3.10;;
48881;SDS011;57063;51.406;-2.402;2024-01-11T03:16:37;12.45;;;3.00;;
48881;SDS011;57063;51.406;-2.402;2024-01-11T03:19:04;18.58;;;3.13;;
48881;SDS011;57063;51.406;-2.402;2024-01-11T03:21:30;10.73;;;2.67;;
48881;SDS011;57063;51.406;-2.402;2024-01-11T03:23:55;21.55;;;2.92;;
48881;SDS011;57063;51.406;-2.402;2024-01-11T03:26:21;5.35;;;2.60;;
48881;SDS011;57063;51.406;-2.402;2024-01-11T03:28:46;7.78;;;3.00;;
48881;SDS011;57063;51.406;-2.402;2024-01-11T03:31:11;9.15;;;2.75;;
48881;SDS011;57063;51.406;-2.402;2024-01-11T03:33:37;6.03;;;2.45;;
48881;SDS011;57063;51.406;-2.402;2024-01-11T03:36:09;6.05;;;2.60;;
48881;SDS011;57063;51.406;-2.402;2024-01-11T03:38:35;10.13;;;3.05;;
48881;SDS011;57063;51.406;-2.402;2024-01-11T03:41:00;6.60;;;2.53;;
48881;SDS011;57063;51.406;-2.402;2024-01-11T03:43:26;12.32;;;2.95;;
48881;SDS011;57063;51.406;-2.402;2024-01-11T03:45:51;7.75;;;3.13;;
48881;SDS011;57063;51.406;-2.402;2024-01-11T03:48:17;10.13;;;2.80;;
48881;SDS011;57063;51.406;-2.402;2024-01-11T03:50:42;6.45;;;2.85;;
48881;SDS011;57063;51.406;-2.402;2024-01-11T03:53:07;7.50;;;2.38;;
48881;SDS011;57063;51.406;-2.402;2024-01-11T03:55:33;8.63;;;2.50;;
48881;SDS011;57063;51.406;-2.402;2024-01-11T03:57:58;12.40;;;5.25;;
48881;SDS011;57063;51.406;-2.402;2024-01-11T04:00:24;11.95;;;3.28;;
48881;SDS011;57063;51.406;-2.402;2024-01-11T04:02:49;15.00;;;3.08;;
48881;SDS011;57063;51.406;-2.402;2024-01-11T04:05:15;6.50;;;2.28;;
48881;SDS011;57063;51.406;-2.402;2024-01-11T04:07:43;19.17;;;4.47;;
48881;SDS011;57063;51.406;-2.402;2024-01-11T04:10:08;6.05;;;2.50;;
48881;SDS011;57063;51.406;-2.402;2024-01-11T04:12:37;19.98;;;5.13;;
48881;SDS011;57063;51.406;-2.402;2024-01-11T04:15:02;7.32;;;2.92;;
48881;SDS011;57063;51.406;-2.402;2024-01-11T04:17:28;8.27;;;3.20;;
48881;SDS011;57063;51.406;-2.402;2024-01-11T04:19:54;12.32;;;3.10;;
48881;SDS011;57063;51.406;-2.402;2024-01-11T04:22:20;6.43;;;3.00;;
48881;SDS011;57063;51.406;-2.402;2024-01-11T04:24:46;11.32;;;3.13;;
48881;SDS011;57063;51.406;-2.402;2024-01-11T04:27:11;7.57;;;2.65;;
48881;SDS011;57063;51.406;-2.402;2024-01-11T04:29:37;8.23;;;2.45;;
48881;SDS011;57063;51.406;-2.402;2024-01-11T04:32:02;12.18;;;2.30;;
48881;SDS011;57063;51.406;-2.402;2024-01-11T04:34:28;11.05;;;2.90;;
48881;SDS011;57063;51.406;-2.402;2024-01-11T04:36:53;11.15;;;3.53;;
48881;SDS011;57063;51.406;-2.402;2024-01-11T04:39:19;13.77;;;2.95;;
48881;SDS011;57063;51.406;-2.402;2024-01-11T04:41:44;11.68;;;3.47;;
48881;SDS011;57063;51.406;-2.402;2024-01-11T04:44:10;13.60;;;4.68;;
48881;SDS011;57063;51.406;-2.402;2024-01-11T04:46:35;5.82;;;2.58;;
48881;SDS011;57063;51.406;-2.402;2024-01-11T04:49:01;8.10;;;2.42;;
48881;SDS011;57063;51.406;-2.402;2024-01-11T04:51:26;6.90;;;3.28;;
48881;SDS011;57063;51.406;-2.402;2024-01-11T04:53:51;8.68;;;2.70;;
48881;SDS011;57063;51.406;-2.402;2024-01-11T04:56:17;9.32;;;2.53;;
48881;SDS011;57063;51.406;-2.402;2024-01-11T04:58:43;12.68;;;3.80;;
48881;SDS011;57063;51.406;-2.402;2024-01-11T05:01:13;9.73;;;2.75;;
48881;SDS011;57063;51.406;-2.402;2024-01-11T05:03:42;11.45;;;3.40;;
48881;SDS011;57063;51.406;-2.402;2024-01-11T05:06:08;6.80;;;2.70;;
48881;SDS011;57063;51.406;-2.402;2024-01-11T05:08:33;8.88;;;2.47;;
48881;SDS011;57063;51.406;-2.402;2024-01-11T05:10:58;12.60;;;4.75;;
48881;SDS011;57063;51.406;-2.402;2024-01-11T05:13:24;10.10;;;3.00;;
48881;SDS011;57063;51.406;-2.402;2024-01-11T05:15:49;10.13;;;2.72;;
48881;SDS011;57063;51.406;-2.402;2024-01-11T05:18:14;11.85;;;2.88;;
48881;SDS011;57063;51.406;-2.402;2024-01-11T05:20:40;16.23;;;3.65;;
48881;SDS011;57063;51.406;-2.402;2024-01-11T05:23:05;11.23;;;3.75;;
48881;SDS011;57063;51.406;-2.402;2024-01-11T05:25:31;8.32;;;2.63;;
48881;SDS011;57063;51.406;-2.402;2024-01-11T05:28:00;11.02;;;3.30;;
48881;SDS011;57063;51.406;-2.402;2024-01-11T05:30:26;14.93;;;3.35;;
48881;SDS011;57063;51.406;-2.402;2024-01-11T05:32:51;14.48;;;2.80;;
48881;SDS011;57063;51.406;-2.402;2024-01-11T05:35:16;5.68;;;2.38;;
48881;SDS011;57063;51.406;-2.402;2024-01-11T05:37:42;10.73;;;2.60;;
48881;SDS011;57063;51.406;-2.402;2024-01-11T05:40:07;18.95;;;5.43;;
48881;SDS011;57063;51.406;-2.402;2024-01-11T05:42:33;8.25;;;3.40;;
48881;SDS011;57063;51.406;-2.402;2024-01-11T05:44:58;14.20;;;3.58;;
48881;SDS011;57063;51.406;-2.402;2024-01-11T05:47:24;13.88;;;2.55;;
48881;SDS011;57063;51.406;-2.402;2024-01-11T05:49:49;7.43;;;2.38;;
48881;SDS011;57063;51.406;-2.402;2024-01-11T05:52:15;5.47;;;2.20;;
48881;SDS011;57063;51.406;-2.402;2024-01-11T05:54:40;11.10;;;4.03;;
48881;SDS011;57063;51.406;-2.402;2024-01-11T05:57:06;12.70;;;3.30;;
48881;SDS011;57063;51.406;-2.402;2024-01-11T05:59:32;10.25;;;2.47;;
48881;SDS011;57063;51.406;-2.402;2024-01-11T06:01:58;11.02;;;3.13;;
48881;SDS011;57063;51.406;-2.402;2024-01-11T06:04:25;7.82;;;4.03;;
48881;SDS011;57063;51.406;-2.402;2024-01-11T06:06:51;11.02;;;2.60;;
48881;SDS011;57063;51.406;-2.402;2024-01-11T06:09:16;5.70;;;2.40;;
48881;SDS011;57063;51.406;-2.402;2024-01-11T06:11:42;5.80;;;2.70;;
48881;SDS011;57063;51.406;-2.402;2024-01-11T06:14:07;8.27;;;2.33;;
48881;SDS011;57063;51.406;-2.402;2024-01-11T06:16:33;14.65;;;2.97;;
48881;SDS011;57063;51.406;-2.402;2024-01-11T06:18:58;4.25;;;2.13;;
48881;SDS011;57063;51.406;-2.402;2024-01-11T06:21:24;11.57;;;2.70;;
48881;SDS011;57063;51.406;-2.402;2024-01-11T06:23:49;7.30;;;2.40;;
48881;SDS011;57063;51.406;-2.402;2024-01-11T06:26:14;7.18;;;1.98;;
48881;SDS011;57063;51.406;-2.402;2024-01-11T06:28:40;8.13;;;1.98;;
48881;SDS011;57063;51.406;-2.402;2024-01-11T06:31:05;10.00;;;2.55;;
48881;SDS011;57063;51.406;-2.402;2024-01-11T06:33:31;8.50;;;2.72;;
48881;SDS011;57063;51.406;-2.402;2024-01-11T06:35:58;4.95;;;2.03;;
48881;SDS011;57063;51.406;-2.402;2024-01-11T06:38:23;16.63;;;2.78;;
48881;SDS011;57063;51.406;-2.402;2024-01-11T06:40:49;4.78;;;1.88;;
48881;SDS011;57063;51.406;-2.402;2024-01-11T06:43:14;7.45;;;2.33;;
48881;SDS011;57063;51.406;-2.402;2024-01-11T06:45:41;10.18;;;2.03;;
48881;SDS011;57063;51.406;-2.402;2024-01-11T06:48:08;10.73;;;3.55;;
48881;SDS011;57063;51.406;-2.402;2024-01-11T06:50:33;10.55;;;2.50;;
48881;SDS011;57063;51.406;-2.402;2024-01-11T06:52:59;13.50;;;2.65;;
48881;SDS011;57063;51.406;-2.402;2024-01-11T06:55:24;8.68;;;2.50;;
48881;SDS011;57063;51.406;-2.402;2024-01-11T06:57:50;8.82;;;3.92;;
48881;SDS011;57063;51.406;-2.402;2024-01-11T07:00:15;6.53;;;2.35;;
48881;SDS011;57063;51.406;-2.402;2024-01-11T07:02:41;11.20;;;2.40;;
48881;SDS011;57063;51.406;-2.402;2024-01-11T07:05:06;10.73;;;2.67;;
48881;SDS011;57063;51.406;-2.402;2024-01-11T07:07:32;4.43;;;1.90;;
48881;SDS011;57063;51.406;-2.402;2024-01-11T07:09:58;9.90;;;2.03;;
48881;SDS011;57063;51.406;-2.402;2024-01-11T07:12:24;7.03;;;2.00;;
48881;SDS011;57063;51.406;-2.402;2024-01-11T07:14:50;11.18;;;2.25;;
48881;SDS011;57063;51.406;-2.402;2024-01-11T07:17:16;11.07;;;1.90;;
48881;SDS011;57063;51.406;-2.402;2024-01-11T07:19:42;3.15;;;1.58;;
48881;SDS011;57063;51.406;-2.402;2024-01-11T07:22:07;13.38;;;2.30;;
48881;SDS011;57063;51.406;-2.402;2024-01-11T07:24:32;12.02;;;1.92;;
48881;SDS011;57063;51.406;-2.402;2024-01-11T07:27:03;4.28;;;1.70;;
48881;SDS011;57063;51.406;-2.402;2024-01-11T07:29:30;9.48;;;2.25;;
48881;SDS011;57063;51.406;-2.402;2024-01-11T07:31:55;12.98;;;2.28;;
48881;SDS011;57063;51.406;-2.402;2024-01-11T07:34:21;7.53;;;2.15;;
48881;SDS011;57063;51.406;-2.402;2024-01-11T07:36:46;12.55;;;2.40;;
48881;SDS011;57063;51.406;-2.402;2024-01-11T07:39:12;8.25;;;2.03;;
48881;SDS011;57063;51.406;-2.402;2024-01-11T07:41:37;4.30;;;2.10;;
48881;SDS011;57063;51.406;-2.402;2024-01-11T07:44:02;10.95;;;2.47;;
48881;SDS011;57063;51.406;-2.402;2024-01-11T07:46:28;5.53;;;2.05;;
48881;SDS011;57063;51.406;-2.402;2024-01-11T07:48:54;11.93;;;2.15;;
48881;SDS011;57063;51.406;-2.402;2024-01-11T07:51:19;4.78;;;2.83;;
48881;SDS011;57063;51.406;-2.402;2024-01-11T07:53:45;11.75;;;2.40;;
48881;SDS011;57063;51.406;-2.402;2024-01-11T07:56:11;8.90;;;1.73;;
48881;SDS011;57063;51.406;-2.402;2024-01-11T07:58:36;9.70;;;2.30;;
48881;SDS011;57063;51.406;-2.402;2024-01-11T08:01:03;8.25;;;1.98;;
48881;SDS011;57063;51.406;-2.402;2024-01-11T08:03:29;12.57;;;2.30;;
48881;SDS011;57063;51.406;-2.402;2024-01-11T08:05:55;12.65;;;2.17;;
48881;SDS011;57063;51.406;-2.402;2024-01-11T08:08:20;8.52;;;2.30;;
48881;SDS011;57063;51.406;-2.402;2024-01-11T08:10:47;10.70;;;2.22;;
48881;SDS011;57063;51.406;-2.402;2024-01-11T08:13:15;7.13;;;2.05;;
48881;SDS011;57063;51.406;-2.402;2024-01-11T08:15:40;11.02;;;2.45;;
48881;SDS011;57063;51.406;-2.402;2024-01-11T08:18:06;8.27;;;1.65;;
48881;SDS011;57063;51.406;-2.402;2024-01-11T08:20:32;4.93;;;1.45;;
48881;SDS011;57063;51.406;-2.402;2024-01-11T08:22:58;6.75;;;1.95;;
48881;SDS011;57063;51.406;-2.402;2024-01-11T08:25:23;4.28;;;1.45;;
48881;SDS011;57063;51.406;-2.402;2024-01-11T08:27:48;7.72;;;1.90;;
48881;SDS011;57063;51.406;-2.402;2024-01-11T08:30:14;5.13;;;1.98;;
48881;SDS011;57063;51.406;-2.402;2024-01-11T08:32:40;6.68;;;1.75;;
48881;SDS011;57063;51.406;-2.402;2024-01-11T08:35:07;9.00;;;1.50;;
48881;SDS011;57063;51.406;-2.402;2024-01-11T08:37:35;11.25;;;1.65;;
48881;SDS011;57063;51.406;-2.402;2024-01-11T08:40:00;3.83;;;1.30;;
48881;SDS011;57063;51.406;-2.402;2024-01-11T08:42:26;9.40;;;2.20;;
48881;SDS011;57063;51.406;-2.402;2024-01-11T08:44:51;7.88;;;1.38;;
48881;SDS011;57063;51.406;-2.402;2024-01-11T08:47:17;19.25;;;3.63;;
48881;SDS011;57063;51.406;-2.402;2024-01-11T08:49:43;8.18;;;1.92;;
48881;SDS011;57063;51.406;-2.402;2024-01-11T08:52:08;6.63;;;1.35;;
48881;SDS011;57063;51.406;-2.402;2024-01-11T08:54:34;7.88;;;1.65;;
48881;SDS011;57063;51.406;-2.402;2024-01-11T08:57:00;4.13;;;1.50;;
48881;SDS011;57063;51.406;-2.402;2024-01-11T08:59:26;10.05;;;2.00;;
48881;SDS011;57063;51.406;-2.402;2024-01-11T09:01:52;4.85;;;1.65;;
48881;SDS011;57063;51.406;-2.402;2024-01-11T09:04:17;7.45;;;1.50;;
48881;SDS011;57063;51.406;-2.402;2024-01-11T09:06:43;5.78;;;1.90;;
48881;SDS011;57063;51.406;-2.402;2024-01-11T09:09:08;10.02;;;1.60;;
48881;SDS011;57063;51.406;-2.402;2024-01-11T09:11:35;7.28;;;2.05;;
48881;SDS011;57063;51.406;-2.402;2024-01-11T09:14:00;3.42;;;1.20;;
48881;SDS011;57063;51.406;-2.402;2024-01-11T09:16:27;5.78;;;1.60;;
48881;SDS011;57063;51.406;-2.402;2024-01-11T09:18:53;7.45;;;1.83;;
48881;SDS011;57063;51.406;-2.402;2024-01-11T09:21:18;7.65;;;1.40;;
48881;SDS011;57063;51.406;-2.402;2024-01-11T09:23:43;9.45;;;3.15;;
48881;SDS011;57063;51.406;-2.402;2024-01-11T09:26:09;5.55;;;1.02;;
48881;SDS011;57063;51.406;-2.402;2024-01-11T09:28:35;4.50;;;1.40;;
48881;SDS011;57063;51.406;-2.402;2024-01-11T09:31:01;4.85;;;1.58;;
48881;SDS011;57063;51.406;-2.402;2024-01-11T09:33:27;8.80;;;1.48;;
48881;SDS011;57063;51.406;-2.402;2024-01-11T09:35:53;6.25;;;1.40;;
48881;SDS011;57063;51.406;-2.402;2024-01-11T09:38:19;5.60;;;1.80;;
48881;SDS011;57063;51.406;-2.402;2024-01-11T09:40:45;10.73;;;1.30;;
48881;SDS011;57063;51.406;-2.402;2024-01-11T09:43:11;5.88;;;1.42;;
48881;SDS011;57063;51.406;-2.402;2024-01-11T09:45:37;7.20;;;1.58;;
48881;SDS011;57063;51.406;-2.402;2024-01-11T09:48:03;4.80;;;1.38;;
48881;SDS011;57063;51.406;-2.402;2024-01-11T09:50:31;4.80;;;1.20;;
48881;SDS011;57063;51.406;-2.402;2024-01-11T09:52:57;3.65;;;1.10;;
48881;SDS011;57063;51.406;-2.402;2024-01-11T09:55:23;6.00;;;1.35;;
48881;SDS011;57063;51.406;-2.402;2024-01-11T09:57:48;5.57;;;3.67;;
48881;SDS011;57063;51.406;-2.402;2024-01-11T10:00:20;13.30;;;1.60;;
48881;SDS011;57063;51.406;-2.402;2024-01-11T10:02:47;2.40;;;1.35;;
48881;SDS011;57063;51.406;-2.402;2024-01-11T10:05:13;4.50;;;1.20;;
48881;SDS011;57063;51.406;-2.402;2024-01-11T10:07:41;6.47;;;1.48;;
48881;SDS011;57063;51.406;-2.402;2024-01-11T10:10:07;7.03;;;1.15;;
48881;SDS011;57063;51.406;-2.402;2024-01-11T10:12:37;2.25;;;1.20;;
48881;SDS011;57063;51.406;-2.402;2024-01-11T10:15:06;5.70;;;1.35;;
48881;SDS011;57063;51.406;-2.402;2024-01-11T10:17:34;7.90;;;1.00;;
48881;SDS011;57063;51.406;-2.402;2024-01-11T10:20:00;7.60;;;1.67;;
48881;SDS011;57063;51.406;-2.402;2024-01-11T10:22:26;3.55;;;0.98;;
48881;SDS011;57063;51.406;-2.402;2024-01-11T10:25:06;3.63;;;0.85;;
48881;SDS011;57063;51.406;-2.402;2024-01-11T10:27:43;4.43;;;1.17;;
48881;SDS011;57063;51.406;-2.402;2024-01-11T10:30:10;3.15;;;0.95;;
48881;SDS011;57063;51.406;-2.402;2024-01-11T10:32:46;4.45;;;1.15;;
48881;SDS011;57063;51.406;-2.402;2024-01-11T10:35:12;2.90;;;1.05;;
48881;SDS011;57063;51.406;-2.402;2024-01-11T10:37:38;7.72;;;1.25;;
48881;SDS011;57063;51.406;-2.402;2024-01-11T10:40:05;6.95;;;1.38;;
48881;SDS011;57063;51.406;-2.402;2024-01-11T10:42:43;4.78;;;0.65;;
48881;SDS011;57063;51.406;-2.402;2024-01-11T10:45:13;3.88;;;1.10;;
48881;SDS011;57063;51.406;-2.402;2024-01-11T10:47:41;1.98;;;0.93;;
48881;SDS011;57063;51.406;-2.402;2024-01-11T10:50:16;3.83;;;0.80;;
48881;SDS011;57063;51.406;-2.402;2024-01-11T10:52:48;2.50;;;0.90;;
48881;SDS011;57063;51.406;-2.402;2024-01-11T10:55:22;5.57;;;0.98;;
48881;SDS011;57063;51.406;-2.402;2024-01-11T10:57:47;3.30;;;0.80;;
48881;SDS011;57063;51.406;-2.402;2024-01-11T11:00:14;5.07;;;1.38;;
48881;SDS011;57063;51.406;-2.402;2024-01-11T11:02:41;3.08;;;1.08;;
48881;SDS011;57063;51.406;-2.402;2024-01-11T11:05:08;8.57;;;1.13;;
48881;SDS011;57063;51.406;-2.402;2024-01-11T11:07:36;5.47;;;1.10;;
48881;SDS011;57063;51.406;-2.402;2024-01-11T11:10:03;2.22;;;0.80;;
48881;SDS011;57063;51.406;-2.402;2024-01-11T11:12:32;6.65;;;2.05;;
48881;SDS011;57063;51.406;-2.402;2024-01-11T11:14:58;5.50;;;1.08;;
48881;SDS011;57063;51.406;-2.402;2024-01-11T11:17:26;4.40;;;0.75;;
48881;SDS011;57063;51.406;-2.402;2024-01-11T11:19:52;5.40;;;1.00;;
48881;SDS011;57063;51.406;-2.402;2024-01-11T11:22:18;5.32;;;1.05;;
48881;SDS011;57063;51.406;-2.402;2024-01-11T11:24:44;3.72;;;0.85;;
48881;SDS011;57063;51.406;-2.402;2024-01-11T11:27:13;5.40;;;1.05;;
48881;SDS011;57063;51.406;-2.402;2024-01-11T11:29:39;1.90;;;0.68;;
48881;SDS011;57063;51.406;-2.402;2024-01-11T11:32:05;5.40;;;0.90;;
48881;SDS011;57063;51.406;-2.402;2024-01-11T11:34:40;1.92;;;0.68;;
48881;SDS011;57063;51.406;-2.402;2024-01-11T11:37:07;7.07;;;1.00;;
48881;SDS011;57063;51.406;-2.402;2024-01-11T11:39:34;4.82;;;0.70;;
48881;SDS011;57063;51.406;-2.402;2024-01-11T11:41:59;1.70;;;0.80;;
48881;SDS011;57063;51.406;-2.402;2024-01-11T11:44:26;9.02;;;1.55;;
48881;SDS011;57063;51.406;-2.402;2024-01-11T11:46:51;2.38;;;0.80;;
48881;SDS011;57063;51.406;-2.402;2024-01-11T11:49:18;3.60;;;1.00;;
48881;SDS011;57063;51.406;-2.402;2024-01-11T11:51:43;2.67;;;0.88;;
48881;SDS011;57063;51.406;-2.402;2024-01-11T11:54:09;4.05;;;1.08;;
48881;SDS011;57063;51.406;-2.402;2024-01-11T11:56:35;2.88;;;0.90;;
48881;SDS011;57063;51.406;-2.402;2024-01-11T11:59:00;7.68;;;1.30;;
48881;SDS011;57063;51.406;-2.402;2024-01-11T12:01:27;1.98;;;0.93;;
48881;SDS011;57063;51.406;-2.402;2024-01-11T12:03:53;5.30;;;1.05;;
48881;SDS011;57063;51.406;-2.402;2024-01-11T12:06:19;2.40;;;1.08;;
48881;SDS011;57063;51.406;-2.402;2024-01-11T12:08:48;8.15;;;1.13;;
48881;SDS011;57063;51.406;-2.402;2024-01-11T12:11:20;3.13;;;1.30;;
48881;SDS011;57063;51.406;-2.402;2024-01-11T12:13:49;7.20;;;1.77;;
48881;SDS011;57063;51.406;-2.402;2024-01-11T12:16:15;4.47;;;0.95;;
48881;SDS011;57063;51.406;-2.402;2024-01-11T12:18:41;2.45;;;0.98;;
48881;SDS011;57063;51.406;-2.402;2024-01-11T12:21:07;1.83;;;1.05;;
48881;SDS011;57063;51.406;-2.402;2024-01-11T12:23:33;1.15;;;0.80;;
48881;SDS011;57063;51.406;-2.402;2024-01-11T12:26:03;3.78;;;1.50;;
48881;SDS011;57063;51.406;-2.402;2024-01-11T12:28:32;3.70;;;0.98;;
48881;SDS011;57063;51.406;-2.402;2024-01-11T12:30:58;3.83;;;0.90;;
48881;SDS011;57063;51.406;-2.402;2024-01-11T12:33:23;2.50;;;0.98;;
48881;SDS011;57063;51.406;-2.402;2024-01-11T12:35:50;2.08;;;0.85;;
48881;SDS011;57063;51.406;-2.402;2024-01-11T12:38:15;5.95;;;0.90;;
48881;SDS011;57063;51.406;-2.402;2024-01-11T12:40:41;2.17;;;0.93;;
48881;SDS011;57063;51.406;-2.402;2024-01-11T12:43:07;5.30;;;1.10;;
48881;SDS011;57063;51.406;-2.402;2024-01-11T12:45:33;3.63;;;1.25;;
48881;SDS011;57063;51.406;-2.402;2024-01-11T12:48:00;4.60;;;1.10;;
48881;SDS011;57063;51.406;-2.402;2024-01-11T12:50:26;4.85;;;1.50;;
48881;SDS011;57063;51.406;-2.402;2024-01-11T12:53:12;1.30;;;0.80;;
48881;SDS011;57063;51.406;-2.402;2024-01-11T12:55:44;5.00;;;0.80;;
48881;SDS011;57063;51.406;-2.402;2024-01-11T12:58:10;4.68;;;0.80;;
48881;SDS011;57063;51.406;-2.402;2024-01-11T13:00:36;2.95;;;0.80;;
48881;SDS011;57063;51.406;-2.402;2024-01-11T13:03:02;2.13;;;1.15;;
48881;SDS011;57063;51.406;-2.402;2024-01-11T13:05:32;2.90;;;0.88;;
48881;SDS011;57063;51.406;-2.402;2024-01-11T13:08:00;5.40;;;1.50;;
48881;SDS011;57063;51.406;-2.402;2024-01-11T13:10:35;3.55;;;1.00;;
48881;SDS011;57063;51.406;-2.402;2024-01-11T13:13:02;2.85;;;1.17;;
48881;SDS011;57063;51.406;-2.402;2024-01-11T13:15:29;4.75;;;0.60;;
48881;SDS011;57063;51.406;-2.402;2024-01-11T13:17:56;2.05;;;0.68;;
48881;SDS011;57063;51.406;-2.402;2024-01-11T13:20:22;1.42;;;0.68;;
48881;SDS011;57063;51.406;-2.402;2024-01-11T13:22:47;5.53;;;0.95;;
48881;SDS011;57063;51.406;-2.402;2024-01-11T13:25:13;2.65;;;0.80;;
48881;SDS011;57063;51.406;-2.402;2024-01-11T13:27:38;1.10;;;0.65;;
48881;SDS011;57063;51.406;-2.402;2024-01-11T13:30:05;1.75;;;0.70;;
48881;SDS011;57063;51.406;-2.402;2024-01-11T13:32:30;1.13;;;0.70;;
48881;SDS011;57063;51.406;-2.402;2024-01-11T13:34:56;1.50;;;0.80;;
48881;SDS011;57063;51.406;-2.402;2024-01-11T13:37:22;2.63;;;0.90;;
48881;SDS011;57063;51.406;-2.402;2024-01-11T13:39:47;2.92;;;0.98;;
48881;SDS011;57063;51.406;-2.402;2024-01-11T13:42:13;5.10;;;0.85;;
48881;SDS011;57063;51.406;-2.402;2024-01-11T13:44:38;1.58;;;0.85;;
48881;SDS011;57063;51.406;-2.402;2024-01-11T13:47:04;3.03;;;1.00;;
48881;SDS011;57063;51.406;-2.402;2024-01-11T13:49:29;1.45;;;1.00;;
48881;SDS011;57063;51.406;-2.402;2024-01-11T13:51:55;1.65;;;0.80;;
48881;SDS011;57063;51.406;-2.402;2024-01-11T13:54:21;3.15;;;1.10;;
48881;SDS011;57063;51.406;-2.402;2024-01-11T13:56:50;3.13;;;0.88;;
48881;SDS011;57063;51.406;-2.402;2024-01-11T13:59:18;1.35;;;0.90;;
48881;SDS011;57063;51.406;-2.402;2024-01-11T14:01:44;3.40;;;0.77;;
48881;SDS011;57063;51.406;-2.402;2024-01-11T14:04:10;3.78;;;1.00;;
48881;SDS011;57063;51.406;-2.402;2024-01-11T14:06:35;2.55;;;0.98;;
48881;SDS011;57063;51.406;-2.402;2024-01-11T14:09:00;1.98;;;0.85;;
48881;SDS011;57063;51.406;-2.402;2024-01-11T14:11:28;1.30;;;0.90;;
48881;SDS011;57063;51.406;-2.402;2024-01-11T14:13:56;3.35;;;1.08;;
48881;SDS011;57063;51.406;-2.402;2024-01-11T14:16:21;6.65;;;1.25;;
48881;SDS011;57063;51.406;-2.402;2024-01-11T14:18:47;3.67;;;1.42;;
48881;SDS011;57063;51.406;-2.402;2024-01-11T14:21:13;1.25;;;0.95;;
48881;SDS011;57063;51.406;-2.402;2024-01-11T14:23:39;4.30;;;0.98;;
48881;SDS011;57063;51.406;-2.402;2024-01-11T14:26:04;5.43;;;1.27;;